sensor_id;sensor_type;location;lat;lon;timestamp;P1;durP1;ratioP1;P2;durP2;ratioP2
10432;SDS011;5263;48.680;9.004;2022-12-11T00:00:56;30.83;;;18.30;;
10432;SDS011;5263;48.680;9.004;2022-12-11T00:03:22;27.87;;;17.77;;
10432;SDS011;5263;48.680;9.004;2022-12-11T00:05:47;25.43;;;18.57;;
10432;SDS011;5263;48.680;9.004;2022-12-11T00:08:13;26.47;;;18.37;;
10432;SDS011;5263;48.680;9.004;2022-12-11T00:10:38;29.70;;;18.80;;
10432;SDS011;5263;48.680;9.004;2022-12-11T00:13:04;29.00;;;19.10;;
10432;SDS011;5263;48.680;9.004;2022-12-11T00:15:30;26.77;;;18.17;;
10432;SDS011;5263;48.680;9.004;2022-12-11T00:17:55;28.43;;;18.70;;
10432;SDS011;5263;48.680;9.004;2022-12-11T00:20:21;28.07;;;18.57;;
10432;SDS011;5263;48.680;9.004;2022-12-11T00:22:46;27.33;;;18.10;;
10432;SDS011;5263;48.680;9.004;2022-12-11T00:25:12;26.57;;;17.87;;
10432;SDS011;5263;48.680;9.004;2022-12-11T00:27:38;24.13;;;16.90;;
10432;SDS011;5263;48.680;9.004;2022-12-11T00:30:04;21.27;;;15.93;;
10432;SDS011;5263;48.680;9.004;2022-12-11T00:32:30;21.97;;;16.30;;
10432;SDS011;5263;48.680;9.004;2022-12-11T00:34:56;24.67;;;15.83;;
10432;SDS011;5263;48.680;9.004;2022-12-11T00:37:22;25.53;;;16.33;;
10432;SDS011;5263;48.680;9.004;2022-12-11T00:39:47;23.47;;;15.77;;
10432;SDS011;5263;48.680;9.004;2022-12-11T00:42:13;24.00;;;16.40;;
10432;SDS011;5263;48.680;9.004;2022-12-11T00:44:39;24.27;;;16.80;;
10432;SDS011;5263;48.680;9.004;2022-12-11T00:47:05;23.00;;;16.17;;
10432;SDS011;5263;48.680;9.004;2022-12-11T00:49:30;26.70;;;17.77;;
10432;SDS011;5263;48.680;9.004;2022-12-11T00:51:56;26.83;;;18.10;;
10432;SDS011;5263;48.680;9.004;2022-12-11T00:54:22;26.77;;;17.63;;
10432;SDS011;5263;48.680;9.004;2022-12-11T00:56:47;29.17;;;18.60;;
10432;SDS011;5263;48.680;9.004;2022-12-11T00:59:13;29.43;;;18.77;;
10432;SDS011;5263;48.680;9.004;2022-12-11T01:01:38;24.10;;;16.30;;
10432;SDS011;5263;48.680;9.004;2022-12-11T01:04:04;26.37;;;17.50;;
10432;SDS011;5263;48.680;9.004;2022-12-11T01:06:30;26.87;;;17.67;;
10432;SDS011;5263;48.680;9.004;2022-12-11T01:08:55;21.30;;;15.60;;
10432;SDS011;5263;48.680;9.004;2022-12-11T01:11:40;24.23;;;14.87;;
10432;SDS011;5263;48.680;9.004;2022-12-11T01:14:07;23.30;;;15.27;;
10432;SDS011;5263;48.680;9.004;2022-12-11T01:16:34;20.60;;;14.50;;
10432;SDS011;5263;48.680;9.004;2022-12-11T01:18:59;22.83;;;15.43;;
10432;SDS011;5263;48.680;9.004;2022-12-11T01:21:25;25.80;;;16.60;;
10432;SDS011;5263;48.680;9.004;2022-12-11T01:23:51;21.87;;;14.30;;
10432;SDS011;5263;48.680;9.004;2022-12-11T01:26:17;22.43;;;15.40;;
10432;SDS011;5263;48.680;9.004;2022-12-11T01:28:42;22.07;;;15.13;;
10432;SDS011;5263;48.680;9.004;2022-12-11T01:31:09;21.83;;;13.60;;
10432;SDS011;5263;48.680;9.004;2022-12-11T01:33:36;25.83;;;15.53;;
10432;SDS011;5263;48.680;9.004;2022-12-11T01:36:06;21.97;;;14.67;;
10432;SDS011;5263;48.680;9.004;2022-12-11T01:38:36;28.00;;;17.00;;
10432;SDS011;5263;48.680;9.004;2022-12-11T01:41:02;25.47;;;17.20;;
10432;SDS011;5263;48.680;9.004;2022-12-11T01:43:28;22.40;;;15.50;;
10432;SDS011;5263;48.680;9.004;2022-12-11T01:45:53;22.43;;;15.20;;
10432;SDS011;5263;48.680;9.004;2022-12-11T01:48:20;21.43;;;16.07;;
10432;SDS011;5263;48.680;9.004;2022-12-11T01:50:50;23.90;;;15.17;;
10432;SDS011;5263;48.680;9.004;2022-12-11T01:53:24;22.63;;;16.10;;
10432;SDS011;5263;48.680;9.004;2022-12-11T01:55:57;20.93;;;15.20;;
10432;SDS011;5263;48.680;9.004;2022-12-11T01:58:25;22.30;;;15.57;;
10432;SDS011;5263;48.680;9.004;2022-12-11T02:00:54;20.27;;;14.40;;
10432;SDS011;5263;48.680;9.004;2022-12-11T02:03:21;20.73;;;15.07;;
10432;SDS011;5263;48.680;9.004;2022-12-11T02:05:47;20.73;;;15.90;;
10432;SDS011;5263;48.680;9.004;2022-12-11T02:08:13;21.50;;;14.73;;
10432;SDS011;5263;48.680;9.004;2022-12-11T02:13:34;16.87;;;13.43;;
10432;SDS011;5263;48.680;9.004;2022-12-11T02:16:20;22.90;;;14.93;;
10432;SDS011;5263;48.680;9.004;2022-12-11T02:21:27;21.17;;;14.20;;
10432;SDS011;5263;48.680;9.004;2022-12-11T02:29:22;18.27;;;14.40;;
10432;SDS011;5263;48.680;9.004;2022-12-11T02:32:04;18.17;;;12.13;;
10432;SDS011;5263;48.680;9.004;2022-12-11T02:34:45;18.83;;;14.07;;
10432;SDS011;5263;48.680;9.004;2022-12-11T02:37:39;16.90;;;12.27;;
10432;SDS011;5263;48.680;9.004;2022-12-11T02:43:03;16.80;;;11.90;;
10432;SDS011;5263;48.680;9.004;2022-12-11T02:45:32;18.30;;;12.10;;
10432;SDS011;5263;48.680;9.004;2022-12-11T02:48:00;18.13;;;13.43;;
10432;SDS011;5263;48.680;9.004;2022-12-11T02:50:29;19.10;;;13.20;;
10432;SDS011;5263;48.680;9.004;2022-12-11T02:52:57;17.87;;;12.17;;
10432;SDS011;5263;48.680;9.004;2022-12-11T02:55:26;17.43;;;12.77;;
10432;SDS011;5263;48.680;9.004;2022-12-11T02:58:01;15.53;;;12.00;;
10432;SDS011;5263;48.680;9.004;2022-12-11T03:00:30;15.73;;;11.83;;
10432;SDS011;5263;48.680;9.004;2022-12-11T03:02:56;15.87;;;10.93;;
10432;SDS011;5263;48.680;9.004;2022-12-11T03:05:22;15.37;;;11.27;;
10432;SDS011;5263;48.680;9.004;2022-12-11T03:07:48;14.63;;;11.17;;
10432;SDS011;5263;48.680;9.004;2022-12-11T03:10:14;14.30;;;11.10;;
10432;SDS011;5263;48.680;9.004;2022-12-11T03:12:46;14.30;;;10.60;;
10432;SDS011;5263;48.680;9.004;2022-12-11T03:15:15;15.03;;;11.07;;
10432;SDS011;5263;48.680;9.004;2022-12-11T03:20:35;14.87;;;11.27;;
10432;SDS011;5263;48.680;9.004;2022-12-11T03:29:02;15.40;;;11.83;;
10432;SDS011;5263;48.680;9.004;2022-12-11T03:31:10;16.60;;;12.27;;
10432;SDS011;5263;48.680;9.004;2022-12-11T03:33:41;15.93;;;11.03;;
10432;SDS011;5263;48.680;9.004;2022-12-11T03:36:13;14.20;;;10.67;;
10432;SDS011;5263;48.680;9.004;2022-12-11T03:38:49;13.77;;;11.50;;
10432;SDS011;5263;48.680;9.004;2022-12-11T03:41:21;16.07;;;11.70;;
10432;SDS011;5263;48.680;9.004;2022-12-11T03:43:49;14.83;;;10.30;;
10432;SDS011;5263;48.680;9.004;2022-12-11T03:46:17;16.83;;;12.17;;
10432;SDS011;5263;48.680;9.004;2022-12-11T03:48:46;13.43;;;10.37;;
10432;SDS011;5263;48.680;9.004;2022-12-11T03:51:13;14.37;;;10.97;;
10432;SDS011;5263;48.680;9.004;2022-12-11T03:53:40;14.70;;;11.30;;
10432;SDS011;5263;48.680;9.004;2022-12-11T03:56:07;14.97;;;11.60;;
10432;SDS011;5263;48.680;9.004;2022-12-11T03:58:35;13.73;;;10.43;;
10432;SDS011;5263;48.680;9.004;2022-12-11T04:01:01;15.00;;;11.47;;
10432;SDS011;5263;48.680;9.004;2022-12-11T04:03:27;11.73;;;10.07;;
10432;SDS011;5263;48.680;9.004;2022-12-11T04:05:53;14.23;;;10.37;;
10432;SDS011;5263;48.680;9.004;2022-12-11T04:08:20;17.40;;;11.57;;
10432;SDS011;5263;48.680;9.004;2022-12-11T04:10:47;15.27;;;11.03;;
10432;SDS011;5263;48.680;9.004;2022-12-11T04:13:34;15.17;;;10.73;;
10432;SDS011;5263;48.680;9.004;2022-12-11T04:15:59;19.10;;;11.73;;
10432;SDS011;5263;48.680;9.004;2022-12-11T04:18:25;14.50;;;11.43;;
10432;SDS011;5263;48.680;9.004;2022-12-11T04:21:09;14.20;;;10.13;;
10432;SDS011;5263;48.680;9.004;2022-12-11T04:23:53;17.00;;;11.47;;
10432;SDS011;5263;48.680;9.004;2022-12-11T04:26:37;17.77;;;11.30;;
10432;SDS011;5263;48.680;9.004;2022-12-11T04:29:03;14.33;;;10.20;;
10432;SDS011;5263;48.680;9.004;2022-12-11T04:31:29;13.20;;;10.70;;
10432;SDS011;5263;48.680;9.004;2022-12-11T04:33:54;14.73;;;10.60;;
10432;SDS011;5263;48.680;9.004;2022-12-11T04:36:20;16.93;;;11.80;;
10432;SDS011;5263;48.680;9.004;2022-12-11T04:38:46;12.70;;;9.73;;
10432;SDS011;5263;48.680;9.004;2022-12-11T04:41:12;15.17;;;12.00;;
10432;SDS011;5263;48.680;9.004;2022-12-11T04:43:38;15.73;;;10.93;;
10432;SDS011;5263;48.680;9.004;2022-12-11T04:46:09;15.07;;;11.67;;
10432;SDS011;5263;48.680;9.004;2022-12-11T04:48:36;14.17;;;10.43;;
10432;SDS011;5263;48.680;9.004;2022-12-11T04:51:03;16.43;;;12.50;;
10432;SDS011;5263;48.680;9.004;2022-12-11T04:53:29;13.27;;;9.43;;
10432;SDS011;5263;48.680;9.004;2022-12-11T04:55:55;15.77;;;11.63;;
10432;SDS011;5263;48.680;9.004;2022-12-11T04:58:21;15.37;;;10.73;;
10432;SDS011;5263;48.680;9.004;2022-12-11T05:00:47;11.30;;;9.27;;
10432;SDS011;5263;48.680;9.004;2022-12-11T05:03:13;20.27;;;11.13;;
10432;SDS011;5263;48.680;9.004;2022-12-11T05:05:38;15.53;;;10.80;;
10432;SDS011;5263;48.680;9.004;2022-12-11T05:08:04;15.23;;;10.17;;
10432;SDS011;5263;48.680;9.004;2022-12-11T05:10:29;13.30;;;10.10;;
10432;SDS011;5263;48.680;9.004;2022-12-11T05:12:55;18.40;;;11.40;;
10432;SDS011;5263;48.680;9.004;2022-12-11T05:15:21;13.53;;;10.60;;
10432;SDS011;5263;48.680;9.004;2022-12-11T05:17:46;16.17;;;10.47;;
10432;SDS011;5263;48.680;9.004;2022-12-11T05:20:12;15.67;;;10.30;;
10432;SDS011;5263;48.680;9.004;2022-12-11T05:22:38;14.97;;;10.57;;
10432;SDS011;5263;48.680;9.004;2022-12-11T05:25:04;16.47;;;11.83;;
10432;SDS011;5263;48.680;9.004;2022-12-11T05:27:30;16.80;;;11.60;;
10432;SDS011;5263;48.680;9.004;2022-12-11T05:29:57;16.13;;;11.13;;
10432;SDS011;5263;48.680;9.004;2022-12-11T05:32:22;15.23;;;11.90;;
10432;SDS011;5263;48.680;9.004;2022-12-11T05:34:49;16.80;;;10.73;;
10432;SDS011;5263;48.680;9.004;2022-12-11T05:37:14;18.30;;;10.83;;
10432;SDS011;5263;48.680;9.004;2022-12-11T05:39:40;15.77;;;10.67;;
10432;SDS011;5263;48.680;9.004;2022-12-11T05:42:06;13.60;;;9.10;;
10432;SDS011;5263;48.680;9.004;2022-12-11T05:44:31;17.80;;;11.70;;
10432;SDS011;5263;48.680;9.004;2022-12-11T05:46:57;14.23;;;9.77;;
10432;SDS011;5263;48.680;9.004;2022-12-11T05:49:23;15.63;;;10.57;;
10432;SDS011;5263;48.680;9.004;2022-12-11T05:51:49;15.17;;;9.60;;
10432;SDS011;5263;48.680;9.004;2022-12-11T05:54:14;13.67;;;10.90;;
10432;SDS011;5263;48.680;9.004;2022-12-11T05:56:40;14.00;;;10.13;;
10432;SDS011;5263;48.680;9.004;2022-12-11T05:59:06;15.23;;;10.90;;
10432;SDS011;5263;48.680;9.004;2022-12-11T06:01:33;14.70;;;9.97;;
10432;SDS011;5263;48.680;9.004;2022-12-11T06:04:04;14.67;;;10.13;;
10432;SDS011;5263;48.680;9.004;2022-12-11T06:06:31;15.60;;;9.33;;
10432;SDS011;5263;48.680;9.004;2022-12-11T06:08:57;12.07;;;9.67;;
10432;SDS011;5263;48.680;9.004;2022-12-11T06:11:25;13.70;;;9.93;;
10432;SDS011;5263;48.680;9.004;2022-12-11T06:13:52;17.53;;;11.77;;
10432;SDS011;5263;48.680;9.004;2022-12-11T06:16:18;16.20;;;11.03;;
10432;SDS011;5263;48.680;9.004;2022-12-11T06:18:44;16.23;;;10.57;;
10432;SDS011;5263;48.680;9.004;2022-12-11T06:21:11;16.03;;;12.33;;
10432;SDS011;5263;48.680;9.004;2022-12-11T06:23:38;17.47;;;11.57;;
10432;SDS011;5263;48.680;9.004;2022-12-11T06:26:04;16.67;;;11.80;;
10432;SDS011;5263;48.680;9.004;2022-12-11T06:28:30;15.70;;;11.07;;
10432;SDS011;5263;48.680;9.004;2022-12-11T06:30:59;14.37;;;10.60;;
10432;SDS011;5263;48.680;9.004;2022-12-11T06:33:25;18.37;;;10.97;;
10432;SDS011;5263;48.680;9.004;2022-12-11T06:35:51;16.27;;;10.50;;
10432;SDS011;5263;48.680;9.004;2022-12-11T06:38:16;15.13;;;10.40;;
10432;SDS011;5263;48.680;9.004;2022-12-11T06:40:42;16.00;;;11.83;;
10432;SDS011;5263;48.680;9.004;2022-12-11T06:43:08;16.60;;;11.03;;
10432;SDS011;5263;48.680;9.004;2022-12-11T06:45:35;18.17;;;13.07;;
10432;SDS011;5263;48.680;9.004;2022-12-11T06:48:02;19.87;;;11.93;;
10432;SDS011;5263;48.680;9.004;2022-12-11T06:50:28;19.77;;;12.07;;
10432;SDS011;5263;48.680;9.004;2022-12-11T06:52:54;15.63;;;11.37;;
10432;SDS011;5263;48.680;9.004;2022-12-11T06:55:20;18.33;;;12.07;;
10432;SDS011;5263;48.680;9.004;2022-12-11T06:57:46;20.40;;;13.37;;
10432;SDS011;5263;48.680;9.004;2022-12-11T07:00:12;18.53;;;12.40;;
10432;SDS011;5263;48.680;9.004;2022-12-11T07:02:38;20.57;;;12.77;;
10432;SDS011;5263;48.680;9.004;2022-12-11T07:05:04;16.20;;;11.23;;
10432;SDS011;5263;48.680;9.004;2022-12-11T07:07:30;17.30;;;11.90;;
10432;SDS011;5263;48.680;9.004;2022-12-11T07:09:56;15.27;;;11.10;;
10432;SDS011;5263;48.680;9.004;2022-12-11T07:12:21;17.13;;;11.20;;
10432;SDS011;5263;48.680;9.004;2022-12-11T07:14:47;16.50;;;11.77;;
10432;SDS011;5263;48.680;9.004;2022-12-11T07:17:12;15.47;;;11.23;;
10432;SDS011;5263;48.680;9.004;2022-12-11T07:19:38;15.13;;;10.70;;
10432;SDS011;5263;48.680;9.004;2022-12-11T07:22:04;16.67;;;10.83;;
10432;SDS011;5263;48.680;9.004;2022-12-11T07:24:30;16.17;;;10.37;;
10432;SDS011;5263;48.680;9.004;2022-12-11T07:26:56;16.00;;;10.93;;
10432;SDS011;5263;48.680;9.004;2022-12-11T07:29:22;17.30;;;11.33;;
10432;SDS011;5263;48.680;9.004;2022-12-11T07:31:48;17.03;;;11.80;;
10432;SDS011;5263;48.680;9.004;2022-12-11T07:34:14;14.97;;;11.23;;
10432;SDS011;5263;48.680;9.004;2022-12-11T07:36:40;19.03;;;12.20;;
10432;SDS011;5263;48.680;9.004;2022-12-11T07:39:07;20.27;;;12.17;;
10432;SDS011;5263;48.680;9.004;2022-12-11T07:41:36;17.13;;;11.40;;
10432;SDS011;5263;48.680;9.004;2022-12-11T07:44:02;14.73;;;10.23;;
10432;SDS011;5263;48.680;9.004;2022-12-11T07:46:28;17.30;;;11.23;;
10432;SDS011;5263;48.680;9.004;2022-12-11T07:48:55;15.13;;;11.20;;
10432;SDS011;5263;48.680;9.004;2022-12-11T07:51:25;16.13;;;12.03;;
10432;SDS011;5263;48.680;9.004;2022-12-11T07:53:54;19.13;;;11.50;;
10432;SDS011;5263;48.680;9.004;2022-12-11T07:56:24;16.30;;;10.67;;
10432;SDS011;5263;48.680;9.004;2022-12-11T07:58:51;19.40;;;12.43;;
10432;SDS011;5263;48.680;9.004;2022-12-11T08:01:18;17.70;;;11.33;;
10432;SDS011;5263;48.680;9.004;2022-12-11T08:03:45;17.03;;;11.40;;
10432;SDS011;5263;48.680;9.004;2022-12-11T08:06:11;18.43;;;12.07;;
10432;SDS011;5263;48.680;9.004;2022-12-11T08:08:37;23.30;;;13.57;;
10432;SDS011;5263;48.680;9.004;2022-12-11T08:11:04;19.07;;;12.83;;
10432;SDS011;5263;48.680;9.004;2022-12-11T08:13:33;19.70;;;12.60;;
10432;SDS011;5263;48.680;9.004;2022-12-11T08:16:03;20.37;;;12.07;;
10432;SDS011;5263;48.680;9.004;2022-12-11T08:18:34;16.73;;;12.53;;
10432;SDS011;5263;48.680;9.004;2022-12-11T08:21:04;18.70;;;12.50;;
10432;SDS011;5263;48.680;9.004;2022-12-11T08:23:35;18.07;;;11.30;;
10432;SDS011;5263;48.680;9.004;2022-12-11T08:26:02;16.97;;;10.97;;
10432;SDS011;5263;48.680;9.004;2022-12-11T08:28:29;17.67;;;12.50;;
10432;SDS011;5263;48.680;9.004;2022-12-11T08:30:55;18.80;;;11.23;;
10432;SDS011;5263;48.680;9.004;2022-12-11T08:33:22;18.67;;;11.13;;
10432;SDS011;5263;48.680;9.004;2022-12-11T08:35:47;14.03;;;10.20;;
10432;SDS011;5263;48.680;9.004;2022-12-11T08:38:13;16.33;;;11.73;;
10432;SDS011;5263;48.680;9.004;2022-12-11T08:40:39;14.30;;;10.40;;
10432;SDS011;5263;48.680;9.004;2022-12-11T08:43:05;15.03;;;10.43;;
10432;SDS011;5263;48.680;9.004;2022-12-11T08:45:30;15.70;;;10.43;;
10432;SDS011;5263;48.680;9.004;2022-12-11T08:47:57;14.50;;;10.60;;
10432;SDS011;5263;48.680;9.004;2022-12-11T08:50:23;14.53;;;9.53;;
10432;SDS011;5263;48.680;9.004;2022-12-11T08:52:49;16.37;;;9.83;;
10432;SDS011;5263;48.680;9.004;2022-12-11T08:55:15;15.10;;;10.77;;
10432;SDS011;5263;48.680;9.004;2022-12-11T08:57:40;12.90;;;9.73;;
10432;SDS011;5263;48.680;9.004;2022-12-11T09:00:06;13.13;;;9.33;;
10432;SDS011;5263;48.680;9.004;2022-12-11T09:02:36;14.80;;;9.97;;
10432;SDS011;5263;48.680;9.004;2022-12-11T09:05:02;15.50;;;10.60;;
10432;SDS011;5263;48.680;9.004;2022-12-11T09:07:31;14.27;;;9.47;;
10432;SDS011;5263;48.680;9.004;2022-12-11T09:09:58;12.60;;;9.60;;
10432;SDS011;5263;48.680;9.004;2022-12-11T09:12:25;12.17;;;9.10;;
10432;SDS011;5263;48.680;9.004;2022-12-11T09:14:51;14.03;;;9.63;;
10432;SDS011;5263;48.680;9.004;2022-12-11T09:17:17;12.23;;;9.30;;
10432;SDS011;5263;48.680;9.004;2022-12-11T09:19:42;15.77;;;9.17;;
10432;SDS011;5263;48.680;9.004;2022-12-11T09:22:08;11.80;;;8.73;;
10432;SDS011;5263;48.680;9.004;2022-12-11T09:24:35;12.60;;;9.03;;
10432;SDS011;5263;48.680;9.004;2022-12-11T09:27:01;11.43;;;8.77;;
10432;SDS011;5263;48.680;9.004;2022-12-11T09:29:27;15.40;;;10.43;;
10432;SDS011;5263;48.680;9.004;2022-12-11T09:31:53;13.27;;;9.43;;
10432;SDS011;5263;48.680;9.004;2022-12-11T09:34:19;12.47;;;8.93;;
10432;SDS011;5263;48.680;9.004;2022-12-11T09:36:45;13.50;;;9.23;;
10432;SDS011;5263;48.680;9.004;2022-12-11T09:39:11;13.00;;;8.73;;
10432;SDS011;5263;48.680;9.004;2022-12-11T09:41:39;14.63;;;9.63;;
10432;SDS011;5263;48.680;9.004;2022-12-11T09:48:06;12.33;;;9.20;;
10432;SDS011;5263;48.680;9.004;2022-12-11T09:50:44;13.50;;;9.13;;
10432;SDS011;5263;48.680;9.004;2022-12-11T09:55:50;12.50;;;8.67;;
10432;SDS011;5263;48.680;9.004;2022-12-11T09:58:30;13.53;;;9.40;;
10432;SDS011;5263;48.680;9.004;2022-12-11T10:01:21;11.13;;;8.00;;
10432;SDS011;5263;48.680;9.004;2022-12-11T10:09:54;74.53;;;45.20;;
10432;SDS011;5263;48.680;9.004;2022-12-11T10:18:02;10.87;;;7.17;;
10432;SDS011;5263;48.680;9.004;2022-12-11T10:20:32;9.27;;;7.43;;
10432;SDS011;5263;48.680;9.004;2022-12-11T10:23:04;9.80;;;8.00;;
10432;SDS011;5263;48.680;9.004;2022-12-11T10:25:34;10.10;;;7.33;;
10432;SDS011;5263;48.680;9.004;2022-12-11T10:28:11;9.13;;;7.00;;
10432;SDS011;5263;48.680;9.004;2022-12-11T10:30:39;9.27;;;6.73;;
10432;SDS011;5263;48.680;9.004;2022-12-11T10:36:36;10.87;;;7.30;;
10432;SDS011;5263;48.680;9.004;2022-12-11T10:39:09;13.87;;;7.47;;
10432;SDS011;5263;48.680;9.004;2022-12-11T10:41:39;8.23;;;6.67;;
10432;SDS011;5263;48.680;9.004;2022-12-11T10:44:13;16.07;;;8.53;;
10432;SDS011;5263;48.680;9.004;2022-12-11T10:46:41;9.37;;;7.47;;
10432;SDS011;5263;48.680;9.004;2022-12-11T10:49:19;8.83;;;7.00;;
10432;SDS011;5263;48.680;9.004;2022-12-11T10:51:46;9.57;;;7.70;;
10432;SDS011;5263;48.680;9.004;2022-12-11T10:57:00;9.60;;;7.43;;
10432;SDS011;5263;48.680;9.004;2022-12-11T11:01:53;11.30;;;8.03;;
10432;SDS011;5263;48.680;9.004;2022-12-11T11:04:19;12.67;;;9.10;;
10432;SDS011;5263;48.680;9.004;2022-12-11T11:07:09;13.83;;;8.77;;
10432;SDS011;5263;48.680;9.004;2022-12-11T11:09:36;11.00;;;8.70;;
10432;SDS011;5263;48.680;9.004;2022-12-11T11:12:03;11.67;;;8.23;;
10432;SDS011;5263;48.680;9.004;2022-12-11T11:14:41;9.27;;;6.97;;
10432;SDS011;5263;48.680;9.004;2022-12-11T11:17:10;8.37;;;7.10;;
10432;SDS011;5263;48.680;9.004;2022-12-11T11:19:39;14.03;;;8.20;;
10432;SDS011;5263;48.680;9.004;2022-12-11T11:22:13;12.03;;;6.53;;
10432;SDS011;5263;48.680;9.004;2022-12-11T11:24:59;9.83;;;6.67;;
10432;SDS011;5263;48.680;9.004;2022-12-11T11:29:54;9.87;;;8.10;;
10432;SDS011;5263;48.680;9.004;2022-12-11T11:32:30;10.97;;;8.33;;
10432;SDS011;5263;48.680;9.004;2022-12-11T11:35:05;13.87;;;6.83;;
10432;SDS011;5263;48.680;9.004;2022-12-11T11:37:35;8.17;;;6.73;;
10432;SDS011;5263;48.680;9.004;2022-12-11T11:40:18;10.93;;;8.23;;
10432;SDS011;5263;48.680;9.004;2022-12-11T11:43:17;9.93;;;7.00;;
10432;SDS011;5263;48.680;9.004;2022-12-11T11:46:03;8.93;;;6.93;;
10432;SDS011;5263;48.680;9.004;2022-12-11T11:51:00;10.20;;;7.67;;
10432;SDS011;5263;48.680;9.004;2022-12-11T11:53:53;11.50;;;7.80;;
10432;SDS011;5263;48.680;9.004;2022-12-11T11:56:25;9.43;;;7.53;;
10432;SDS011;5263;48.680;9.004;2022-12-11T12:01:36;9.40;;;7.43;;
10432;SDS011;5263;48.680;9.004;2022-12-11T12:04:02;11.03;;;7.17;;
10432;SDS011;5263;48.680;9.004;2022-12-11T12:11:33;12.53;;;8.77;;
10432;SDS011;5263;48.680;9.004;2022-12-11T12:14:28;10.77;;;7.43;;
10432;SDS011;5263;48.680;9.004;2022-12-11T12:17:11;13.07;;;7.80;;
10432;SDS011;5263;48.680;9.004;2022-12-11T12:20:17;10.30;;;7.50;;
10432;SDS011;5263;48.680;9.004;2022-12-11T12:22:57;10.83;;;7.87;;
10432;SDS011;5263;48.680;9.004;2022-12-11T12:30:39;9.73;;;7.13;;
10432;SDS011;5263;48.680;9.004;2022-12-11T12:33:30;13.40;;;7.27;;
10432;SDS011;5263;48.680;9.004;2022-12-11T12:38:53;9.13;;;6.63;;
10432;SDS011;5263;48.680;9.004;2022-12-11T12:44:11;11.33;;;7.30;;
10432;SDS011;5263;48.680;9.004;2022-12-11T12:46:56;11.77;;;8.70;;
10432;SDS011;5263;48.680;9.004;2022-12-11T12:49:42;15.07;;;7.87;;
10432;SDS011;5263;48.680;9.004;2022-12-11T12:52:12;8.20;;;6.07;;
10432;SDS011;5263;48.680;9.004;2022-12-11T12:54:38;7.43;;;6.00;;
10432;SDS011;5263;48.680;9.004;2022-12-11T12:57:06;10.43;;;8.07;;
10432;SDS011;5263;48.680;9.004;2022-12-11T12:59:32;8.73;;;6.47;;
10432;SDS011;5263;48.680;9.004;2022-12-11T13:01:58;15.17;;;8.03;;
10432;SDS011;5263;48.680;9.004;2022-12-11T13:04:37;13.27;;;7.70;;
10432;SDS011;5263;48.680;9.004;2022-12-11T13:07:20;10.77;;;7.07;;
10432;SDS011;5263;48.680;9.004;2022-12-11T13:10:20;11.43;;;5.93;;
10432;SDS011;5263;48.680;9.004;2022-12-11T13:12:48;8.70;;;6.20;;
10432;SDS011;5263;48.680;9.004;2022-12-11T13:15:24;12.17;;;6.30;;
10432;SDS011;5263;48.680;9.004;2022-12-11T13:17:53;7.90;;;6.47;;
10432;SDS011;5263;48.680;9.004;2022-12-11T13:20:20;9.80;;;6.93;;
10432;SDS011;5263;48.680;9.004;2022-12-11T13:25:46;9.60;;;6.83;;
10432;SDS011;5263;48.680;9.004;2022-12-11T13:28:24;10.97;;;6.60;;
10432;SDS011;5263;48.680;9.004;2022-12-11T13:31:03;9.23;;;7.07;;
10432;SDS011;5263;48.680;9.004;2022-12-11T13:33:30;10.40;;;7.10;;
10432;SDS011;5263;48.680;9.004;2022-12-11T13:36:30;13.53;;;7.03;;
10432;SDS011;5263;48.680;9.004;2022-12-11T13:38:52;10.67;;;6.83;;
10432;SDS011;5263;48.680;9.004;2022-12-11T13:41:20;9.43;;;7.47;;
10432;SDS011;5263;48.680;9.004;2022-12-11T13:43:47;11.47;;;6.57;;
10432;SDS011;5263;48.680;9.004;2022-12-11T13:46:14;7.60;;;5.83;;
10432;SDS011;5263;48.680;9.004;2022-12-11T13:48:47;8.73;;;6.03;;
10432;SDS011;5263;48.680;9.004;2022-12-11T13:51:20;8.07;;;5.90;;
10432;SDS011;5263;48.680;9.004;2022-12-11T13:53:47;6.73;;;4.53;;
10432;SDS011;5263;48.680;9.004;2022-12-11T13:56:17;7.97;;;4.60;;
10432;SDS011;5263;48.680;9.004;2022-12-11T13:58:44;5.47;;;3.00;;
10432;SDS011;5263;48.680;9.004;2022-12-11T14:06:25;6.53;;;5.87;;
10432;SDS011;5263;48.680;9.004;2022-12-11T14:08:53;10.43;;;6.17;;
10432;SDS011;5263;48.680;9.004;2022-12-11T14:11:23;9.07;;;6.37;;
10432;SDS011;5263;48.680;9.004;2022-12-11T14:13:54;11.03;;;6.13;;
10432;SDS011;5263;48.680;9.004;2022-12-11T14:16:23;9.30;;;5.80;;
10432;SDS011;5263;48.680;9.004;2022-12-11T14:18:51;9.17;;;6.00;;
10432;SDS011;5263;48.680;9.004;2022-12-11T14:21:19;9.90;;;6.00;;
10432;SDS011;5263;48.680;9.004;2022-12-11T14:23:54;12.07;;;6.33;;
10432;SDS011;5263;48.680;9.004;2022-12-11T14:26:27;10.53;;;6.33;;
10432;SDS011;5263;48.680;9.004;2022-12-11T14:28:55;8.10;;;5.70;;
10432;SDS011;5263;48.680;9.004;2022-12-11T14:31:26;9.90;;;6.50;;
10432;SDS011;5263;48.680;9.004;2022-12-11T14:34:03;10.80;;;5.00;;
10432;SDS011;5263;48.680;9.004;2022-12-11T14:36:37;9.63;;;5.67;;
10432;SDS011;5263;48.680;9.004;2022-12-11T14:39:19;6.33;;;5.33;;
10432;SDS011;5263;48.680;9.004;2022-12-11T14:42:02;8.47;;;6.07;;
10432;SDS011;5263;48.680;9.004;2022-12-11T14:44:46;9.57;;;6.83;;
10432;SDS011;5263;48.680;9.004;2022-12-11T14:47:20;15.03;;;6.10;;
10432;SDS011;5263;48.680;9.004;2022-12-11T14:49:53;10.80;;;8.37;;
10432;SDS011;5263;48.680;9.004;2022-12-11T14:52:23;10.40;;;9.00;;
10432;SDS011;5263;48.680;9.004;2022-12-11T14:55:02;12.90;;;9.70;;
10432;SDS011;5263;48.680;9.004;2022-12-11T14:57:32;21.50;;;9.40;;
10432;SDS011;5263;48.680;9.004;2022-12-11T14:59:59;12.87;;;9.27;;
10432;SDS011;5263;48.680;9.004;2022-12-11T15:02:32;11.63;;;8.67;;
10432;SDS011;5263;48.680;9.004;2022-12-11T15:05:01;14.53;;;9.33;;
10432;SDS011;5263;48.680;9.004;2022-12-11T15:07:43;18.73;;;9.77;;
10432;SDS011;5263;48.680;9.004;2022-12-11T15:10:23;12.73;;;8.77;;
10432;SDS011;5263;48.680;9.004;2022-12-11T15:12:55;13.10;;;9.33;;
10432;SDS011;5263;48.680;9.004;2022-12-11T15:15:22;11.97;;;8.60;;
10432;SDS011;5263;48.680;9.004;2022-12-11T15:17:48;10.10;;;7.60;;
10432;SDS011;5263;48.680;9.004;2022-12-11T15:20:28;12.60;;;8.77;;
10432;SDS011;5263;48.680;9.004;2022-12-11T15:22:56;13.50;;;8.87;;
10432;SDS011;5263;48.680;9.004;2022-12-11T15:25:25;13.00;;;8.30;;
10432;SDS011;5263;48.680;9.004;2022-12-11T15:27:55;12.60;;;8.60;;
10432;SDS011;5263;48.680;9.004;2022-12-11T15:30:24;12.40;;;8.07;;
10432;SDS011;5263;48.680;9.004;2022-12-11T15:35:36;12.13;;;8.30;;
10432;SDS011;5263;48.680;9.004;2022-12-11T15:38:04;15.63;;;11.20;;
10432;SDS011;5263;48.680;9.004;2022-12-11T15:40:30;16.17;;;9.60;;
10432;SDS011;5263;48.680;9.004;2022-12-11T15:42:56;14.53;;;9.87;;
10432;SDS011;5263;48.680;9.004;2022-12-11T15:45:25;15.57;;;10.43;;
10432;SDS011;5263;48.680;9.004;2022-12-11T15:47:52;15.50;;;8.10;;
10432;SDS011;5263;48.680;9.004;2022-12-11T15:52:48;31.20;;;17.73;;
10432;SDS011;5263;48.680;9.004;2022-12-11T15:55:14;17.80;;;12.50;;
10432;SDS011;5263;48.680;9.004;2022-12-11T15:57:53;18.37;;;12.00;;
10432;SDS011;5263;48.680;9.004;2022-12-11T16:00:22;16.83;;;12.23;;
10432;SDS011;5263;48.680;9.004;2022-12-11T16:02:48;20.97;;;13.67;;
10432;SDS011;5263;48.680;9.004;2022-12-11T16:05:14;21.77;;;15.23;;
10432;SDS011;5263;48.680;9.004;2022-12-11T16:07:40;23.13;;;14.40;;
10432;SDS011;5263;48.680;9.004;2022-12-11T16:10:06;19.63;;;14.33;;
10432;SDS011;5263;48.680;9.004;2022-12-11T16:12:37;24.93;;;14.83;;
10432;SDS011;5263;48.680;9.004;2022-12-11T16:15:02;22.23;;;15.10;;
10432;SDS011;5263;48.680;9.004;2022-12-11T16:17:28;21.17;;;15.37;;
10432;SDS011;5263;48.680;9.004;2022-12-11T16:19:55;22.70;;;15.03;;